sensor_id;sensor_type;location;lat;lon;timestamp;pressure;altitude;pressure_sealevel;temperature;humidity
27980;BME280;15315;50.836;4.430;2024-01-27T00:02:06;103024.47;;;11.08;52.24
27980;BME280;15315;50.836;4.430;2024-01-27T00:12:07;103010.03;;;11.34;52.19
27980;BME280;15315;50.836;4.430;2024-01-27T00:22:07;103015.72;;;11.26;51.23
27980;BME280;15315;50.836;4.430;2024-01-27T00:32:08;103015.03;;;10.96;52.32
27980;BME280;15315;50.836;4.430;2024-01-27T00:42:08;103037.59;;;11.19;51.67
27980;BME280;15315;50.836;4.430;2024-01-27T00:52:09;103035.06;;;11.39;51.13
27980;BME280;15315;50.836;4.430;2024-01-27T01:02:09;103030.25;;;11.48;50.97
27980;BME280;15315;50.836;4.430;2024-01-27T01:12:09;103028.19;;;11.30;51.37
27980;BME280;15315;50.836;4.430;2024-01-27T01:22:10;103008.50;;;11.51;50.63
27980;BME280;15315;50.836;4.430;2024-01-27T01:32:11;103007.81;;;10.97;52.40
27980;BME280;15315;50.836;4.430;2024-01-27T01:42:12;103012.34;;;10.95;52.38
27980;BME280;15315;50.836;4.430;2024-01-27T01:52:12;103010.44;;;10.98;51.93
27980;BME280;15315;50.836;4.430;2024-01-27T02:02:16;103029.06;;;11.06;51.93
27980;BME280;15315;50.836;4.430;2024-01-27T02:12:17;103028.53;;;10.70;53.24
27980;BME280;15315;50.836;4.430;2024-01-27T02:22:17;103027.84;;;10.90;52.35
27980;BME280;15315;50.836;4.430;2024-01-27T02:32:18;103025.47;;;9.98;55.45
27980;BME280;15315;50.836;4.430;2024-01-27T02:42:19;103018.56;;;10.72;53.55
27980;BME280;15315;50.836;4.430;2024-01-27T02:52:19;103033.47;;;10.84;53.53
27980;BME280;15315;50.836;4.430;2024-01-27T03:02:20;103034.31;;;10.32;54.37
27980;BME280;15315;50.836;4.430;2024-01-27T03:12:20;103031.94;;;11.01;52.80
27980;BME280;15315;50.836;4.430;2024-01-27T03:22:24;103025.72;;;10.99;52.29
27980;BME280;15315;50.836;4.430;2024-01-27T03:32:25;103037.44;;;11.23;50.87
27980;BME280;15315;50.836;4.430;2024-01-27T03:42:26;103034.19;;;11.13;50.87
27980;BME280;15315;50.836;4.430;2024-01-27T03:52:27;103030.19;;;11.25;51.04
27980;BME280;15315;50.836;4.430;2024-01-27T04:02:27;103038.97;;;11.05;50.67
27980;BME280;15315;50.836;4.430;2024-01-27T04:12:28;103033.56;;;10.81;51.37
27980;BME280;15315;50.836;4.430;2024-01-27T04:22:29;103051.09;;;10.68;51.87
27980;BME280;15315;50.836;4.430;2024-01-27T04:32:29;103039.50;;;10.64;51.72
27980;BME280;15315;50.836;4.430;2024-01-27T04:42:29;103050.28;;;10.66;52.05
27980;BME280;15315;50.836;4.430;2024-01-27T04:52:31;103058.84;;;10.78;51.33
27980;BME280;15315;50.836;4.430;2024-01-27T05:02:31;103043.31;;;10.59;52.01
27980;BME280;15315;50.836;4.430;2024-01-27T05:12:31;103035.97;;;10.64;52.32
27980;BME280;15315;50.836;4.430;2024-01-27T05:22:32;103030.38;;;9.85;54.40
27980;BME280;15315;50.836;4.430;2024-01-27T05:32:32;103027.53;;;10.46;52.81
27980;BME280;15315;50.836;4.430;2024-01-27T05:42:33;103029.38;;;10.17;53.45
27980;BME280;15315;50.836;4.430;2024-01-27T05:52:37;103044.13;;;10.34;52.75
27980;BME280;15315;50.836;4.430;2024-01-27T06:02:37;103049.25;;;10.42;52.42
27980;BME280;15315;50.836;4.430;2024-01-27T06:12:38;103047.38;;;10.44;52.44
27980;BME280;15315;50.836;4.430;2024-01-27T06:22:39;103066.94;;;9.32;56.60
27980;BME280;15315;50.836;4.430;2024-01-27T06:32:39;103077.72;;;9.64;56.01
27980;BME280;15315;50.836;4.430;2024-01-27T06:42:40;103072.56;;;9.55;55.85
27980;BME280;15315;50.836;4.430;2024-01-27T06:52:41;103067.34;;;9.49;56.67
27980;BME280;15315;50.836;4.430;2024-01-27T07:02:42;103063.69;;;10.12;53.90
27980;BME280;15315;50.836;4.430;2024-01-27T07:12:42;103062.19;;;10.02;55.71
27980;BME280;15315;50.836;4.430;2024-01-27T07:22:43;103088.38;;;10.26;53.03
27980;BME280;15315;50.836;4.430;2024-01-27T07:32:43;103087.56;;;9.95;53.35
27980;BME280;15315;50.836;4.430;2024-01-27T07:42:44;103075.94;;;9.62;54.81
27980;BME280;15315;50.836;4.430;2024-01-27T07:52:44;103053.06;;;10.07;54.37
27980;BME280;15315;50.836;4.430;2024-01-27T08:02:45;103062.66;;;9.86;55.23
27980;BME280;15315;50.836;4.430;2024-01-27T08:12:45;103062.28;;;10.28;55.31
27980;BME280;15315;50.836;4.430;2024-01-27T08:22:46;103052.59;;;10.76;54.38
27980;BME280;15315;50.836;4.430;2024-01-27T08:32:50;103051.50;;;10.56;54.18
27980;BME280;15315;50.836;4.430;2024-01-27T08:42:51;103060.47;;;10.82;54.98
27980;BME280;15315;50.836;4.430;2024-01-27T08:52:52;103044.25;;;11.33;54.10
27980;BME280;15315;50.836;4.430;2024-01-27T09:02:52;103044.00;;;11.65;54.26
27980;BME280;15315;50.836;4.430;2024-01-27T09:12:53;103064.56;;;11.69;55.40
27980;BME280;15315;50.836;4.430;2024-01-27T09:22:53;103066.13;;;11.52;55.74
27980;BME280;15315;50.836;4.430;2024-01-27T09:32:54;103076.84;;;11.29;57.74
27980;BME280;15315;50.836;4.430;2024-01-27T09:42:59;103099.88;;;11.14;57.18
27980;BME280;15315;50.836;4.430;2024-01-27T09:53:00;103100.66;;;11.92;55.85
27980;BME280;15315;50.836;4.430;2024-01-27T10:03:01;103112.38;;;12.82;54.20
27980;BME280;15315;50.836;4.430;2024-01-27T10:13:03;103119.44;;;12.18;55.03
27980;BME280;15315;50.836;4.430;2024-01-27T10:23:11;103124.22;;;12.34;53.80
27980;BME280;15315;50.836;4.430;2024-01-27T10:33:12;103115.97;;;13.44;51.54
27980;BME280;15315;50.836;4.430;2024-01-27T10:43:17;103110.84;;;13.97;49.57
27980;BME280;15315;50.836;4.430;2024-01-27T10:53:24;103108.63;;;13.87;49.99
27980;BME280;15315;50.836;4.430;2024-01-27T11:03:25;103091.28;;;15.70;46.86
27980;BME280;15315;50.836;4.430;2024-01-27T11:13:28;103083.53;;;15.95;44.92
27980;BME280;15315;50.836;4.430;2024-01-27T11:23:34;103077.47;;;16.21;44.23
27980;BME280;15315;50.836;4.430;2024-01-27T11:33:42;103074.47;;;16.58;41.85
27980;BME280;15315;50.836;4.430;2024-01-27T11:43:51;103074.41;;;14.95;43.62
27980;BME280;15315;50.836;4.430;2024-01-27T11:53:52;103086.22;;;13.83;44.79
27980;BME280;15315;50.836;4.430;2024-01-27T12:03:53;103075.34;;;13.65;45.48
27980;BME280;15315;50.836;4.430;2024-01-27T12:13:53;103060.78;;;14.23;44.82
27980;BME280;15315;50.836;4.430;2024-01-27T12:23:57;103060.28;;;14.34;44.14
27980;BME280;15315;50.836;4.430;2024-01-27T12:33:58;103042.00;;;14.56;43.14
27980;BME280;15315;50.836;4.430;2024-01-27T12:44:01;103030.69;;;15.33;41.62
27980;BME280;15315;50.836;4.430;2024-01-27T12:54:01;103021.19;;;15.25;40.84
27980;BME280;15315;50.836;4.430;2024-01-27T13:04:02;102994.25;;;15.37;39.93
27980;BME280;15315;50.836;4.430;2024-01-27T13:14:02;102990.88;;;15.32;39.54
27980;BME280;15315;50.836;4.430;2024-01-27T13:24:03;102971.34;;;14.57;39.19
27980;BME280;15315;50.836;4.430;2024-01-27T13:34:04;102956.03;;;14.38;39.17
27980;BME280;15315;50.836;4.430;2024-01-27T13:44:05;102953.13;;;15.11;39.83
27980;BME280;15315;50.836;4.430;2024-01-27T13:54:08;102943.41;;;15.55;39.30
27980;BME280;15315;50.836;4.430;2024-01-27T14:04:09;102944.91;;;15.61;39.02
27980;BME280;15315;50.836;4.430;2024-01-27T14:14:10;102945.53;;;15.97;38.90
27980;BME280;15315;50.836;4.430;2024-01-27T14:24:10;102943.34;;;16.03;38.25
27980;BME280;15315;50.836;4.430;2024-01-27T14:34:10;102934.44;;;15.37;38.99
27980;BME280;15315;50.836;4.430;2024-01-27T14:44:12;102938.94;;;15.38;39.01
27980;BME280;15315;50.836;4.430;2024-01-27T14:54:12;102942.72;;;15.52;38.83
27980;BME280;15315;50.836;4.430;2024-01-27T15:04:12;102933.16;;;15.60;39.48
27980;BME280;15315;50.836;4.430;2024-01-27T15:14:13;102936.25;;;15.54;39.75
27980;BME280;15315;50.836;4.430;2024-01-27T15:24:13;102922.22;;;15.62;39.58
27980;BME280;15315;50.836;4.430;2024-01-27T15:34:13;102912.97;;;15.49;39.90
27980;BME280;15315;50.836;4.430;2024-01-27T15:44:14;102914.56;;;15.68;39.81
27980;BME280;15315;50.836;4.430;2024-01-27T15:54:15;102920.13;;;15.34;40.06
27980;BME280;15315;50.836;4.430;2024-01-27T16:04:18;102914.69;;;15.34;40.63
27980;BME280;15315;50.836;4.430;2024-01-27T16:14:18;102911.41;;;15.27;40.90
27980;BME280;15315;50.836;4.430;2024-01-27T16:24:19;102907.03;;;15.25;41.11
27980;BME280;15315;50.836;4.430;2024-01-27T16:34:19;102912.69;;;15.37;41.31
27980;BME280;15315;50.836;4.430;2024-01-27T16:44:20;102933.84;;;15.48;41.50
27980;BME280;15315;50.836;4.430;2024-01-27T16:54:23;102923.97;;;15.30;41.36
27980;BME280;15315;50.836;4.430;2024-01-27T17:04:23;102916.06;;;14.93;42.37
27980;BME280;15315;50.836;4.430;2024-01-27T17:14:23;102901.44;;;14.44;43.27
27980;BME280;15315;50.836;4.430;2024-01-27T17:24:26;102887.91;;;14.08;44.29
27980;BME280;15315;50.836;4.430;2024-01-27T17:34:27;102906.53;;;14.15;43.76
27980;BME280;15315;50.836;4.430;2024-01-27T17:44:27;102895.38;;;13.86;44.39
27980;BME280;15315;50.836;4.430;2024-01-27T17:54:28;102892.09;;;13.60;45.23
27980;BME280;15315;50.836;4.430;2024-01-27T18:04:29;102887.31;;;13.66;45.16
27980;BME280;15315;50.836;4.430;2024-01-27T18:14:29;102896.94;;;13.54;45.18
27980;BME280;15315;50.836;4.430;2024-01-27T18:24:30;102890.31;;;13.41;45.98
27980;BME280;15315;50.836;4.430;2024-01-27T18:34:30;102872.22;;;13.41;46.03
27980;BME280;15315;50.836;4.430;2024-01-27T18:44:32;102876.97;;;12.99;46.37
27980;BME280;15315;50.836;4.430;2024-01-27T18:54:32;102883.75;;;12.69;46.82
27980;BME280;15315;50.836;4.430;2024-01-27T19:04:32;102889.41;;;13.03;45.95
27980;BME280;15315;50.836;4.430;2024-01-27T19:14:36;102879.19;;;12.89;46.31
27980;BME280;15315;50.836;4.430;2024-01-27T19:24:36;102872.00;;;12.48;47.04
27980;BME280;15315;50.836;4.430;2024-01-27T19:34:37;102870.94;;;12.32;47.11
27980;BME280;15315;50.836;4.430;2024-01-27T19:44:38;102876.03;;;12.40;46.72
27980;BME280;15315;50.836;4.430;2024-01-27T19:54:38;102864.72;;;11.88;47.85
27980;BME280;15315;50.836;4.430;2024-01-27T20:04:39;102854.47;;;11.96;47.71
27980;BME280;15315;50.836;4.430;2024-01-27T20:14:42;102848.66;;;11.63;47.94
27980;BME280;15315;50.836;4.430;2024-01-27T20:24:43;102836.19;;;11.59;48.64
27980;BME280;15315;50.836;4.430;2024-01-27T20:34:43;102823.25;;;11.89;47.54
27980;BME280;15315;50.836;4.430;2024-01-27T20:44:44;102837.06;;;11.60;47.83
27980;BME280;15315;50.836;4.430;2024-01-27T20:54:44;102832.19;;;11.25;48.42
27980;BME280;15315;50.836;4.430;2024-01-27T21:04:45;102838.69;;;10.96;49.14
27980;BME280;15315;50.836;4.430;2024-01-27T21:14:45;102833.47;;;11.15;48.90
27980;BME280;15315;50.836;4.430;2024-01-27T21:24:46;102834.09;;;11.21;48.70
27980;BME280;15315;50.836;4.430;2024-01-27T21:34:46;102809.09;;;11.16;48.76
27980;BME280;15315;50.836;4.430;2024-01-27T21:44:47;102797.81;;;11.28;48.31
27980;BME280;15315;50.836;4.430;2024-01-27T21:54:51;102778.53;;;10.69;49.20
27980;BME280;15315;50.836;4.430;2024-01-27T22:04:51;102767.63;;;10.24;50.42
27980;BME280;15315;50.836;4.430;2024-01-27T22:14:52;102755.44;;;10.39;49.40
27980;BME280;15315;50.836;4.430;2024-01-27T22:24:52;102739.63;;;10.04;50.76
27980;BME280;15315;50.836;4.430;2024-01-27T22:34:52;102726.94;;;10.07;50.15
27980;BME280;15315;50.836;4.430;2024-01-27T22:44:53;102721.25;;;9.90;51.02
27980;BME280;15315;50.836;4.430;2024-01-27T22:54:54;102707.91;;;10.12;50.20
27980;BME280;15315;50.836;4.430;2024-01-27T23:04:54;102702.69;;;10.07;50.43
27980;BME280;15315;50.836;4.430;2024-01-27T23:14:55;102682.44;;;10.20;49.85
27980;BME280;15315;50.836;4.430;2024-01-27T23:24:55;102692.06;;;10.26;49.43
27980;BME280;15315;50.836;4.430;2024-01-27T23:34:56;102689.53;;;9.98;49.58
27980;BME280;15315;50.836;4.430;2024-01-27T23:44:56;102687.31;;;10.57;48.98
27980;BME280;15315;50.836;4.430;2024-01-27T23:54:57;102654.66;;;10.65;48.27
